sensor_id;sensor_type;location;lat;lon;timestamp;pressure;altitude;pressure_sealevel;temperature;humidity
80678;BME280;70042;52.494;5.502;2023-05-10T11:29:02;101297.53;;;19.10;67.71
80678;BME280;70042;52.494;5.502;2023-05-10T11:31:29;101296.66;;;19.11;67.29
80678;BME280;70042;52.494;5.502;2023-05-10T11:33:59;101296.63;;;19.12;67.69
80678;BME280;70042;52.494;5.502;2023-05-10T11:36:35;101299.22;;;19.14;67.35
80678;BME280;70042;52.494;5.502;2023-05-10T11:39:01;101305.41;;;19.14;67.40
80678;BME280;70042;52.494;5.502;2023-05-10T11:41:28;101307.22;;;19.12;66.71
80678;BME280;70042;52.494;5.502;2023-05-10T11:43:54;101309.91;;;19.11;67.15
80678;BME280;70042;52.494;5.502;2023-05-10T11:46:21;101309.94;;;19.09;66.72
80678;BME280;70042;52.494;5.502;2023-05-10T11:48:50;101303.78;;;19.07;66.78
80678;BME280;70042;52.494;5.502;2023-05-10T11:51:20;101308.22;;;19.07;66.66
80678;BME280;70042;52.494;5.502;2023-05-10T11:53:46;101311.78;;;19.06;66.93
80678;BME280;70042;52.494;5.502;2023-05-10T11:56:11;101315.34;;;19.05;67.04
80678;BME280;70042;52.494;5.502;2023-05-10T11:58:38;101315.34;;;19.05;66.82
80678;BME280;70042;52.494;5.502;2023-05-10T12:01:05;101315.34;;;19.05;66.96
80678;BME280;70042;52.494;5.502;2023-05-10T12:03:32;101317.97;;;19.06;66.71
80678;BME280;70042;52.494;5.502;2023-05-10T12:05:58;101320.63;;;19.06;66.68
80678;BME280;70042;52.494;5.502;2023-05-10T12:08:26;101322.34;;;19.07;66.63
80678;BME280;70042;52.494;5.502;2023-05-10T12:10:53;101332.91;;;19.09;66.46
80678;BME280;70042;52.494;5.502;2023-05-10T12:13:20;101328.50;;;19.08;66.95
80678;BME280;70042;52.494;5.502;2023-05-10T12:15:46;101325.84;;;19.08;66.75
80678;BME280;70042;52.494;5.502;2023-05-10T12:18:13;101326.72;;;19.08;66.59
80678;BME280;70042;52.494;5.502;2023-05-10T12:20:40;101328.50;;;19.08;66.61
80678;BME280;70042;52.494;5.502;2023-05-10T12:23:08;101325.84;;;19.08;66.34
80678;BME280;70042;52.494;5.502;2023-05-10T12:25:35;101331.16;;;19.08;66.40
80678;BME280;70042;52.494;5.502;2023-05-10T12:28:06;101330.28;;;19.07;66.73
80678;BME280;70042;52.494;5.502;2023-05-10T12:30:33;101331.97;;;19.10;66.65
80678;BME280;70042;52.494;5.502;2023-05-10T12:33:11;101331.94;;;19.13;66.69
80678;BME280;70042;52.494;5.502;2023-05-10T12:36:03;101333.66;;;19.14;66.40
80678;BME280;70042;52.494;5.502;2023-05-10T12:38:29;101330.94;;;19.17;66.83
80678;BME280;70042;52.494;5.502;2023-05-10T12:41:03;101325.56;;;19.20;66.49
80678;BME280;70042;52.494;5.502;2023-05-10T12:43:29;101329.09;;;19.21;66.41
80678;BME280;70042;52.494;5.502;2023-05-10T12:45:55;101337.91;;;19.21;66.58
80678;BME280;70042;52.494;5.502;2023-05-10T12:48:21;101334.38;;;19.22;66.47
80678;BME280;70042;52.494;5.502;2023-05-10T12:50:47;101343.22;;;19.21;66.29
80678;BME280;70042;52.494;5.502;2023-05-10T12:53:16;101342.31;;;19.22;66.79
80678;BME280;70042;52.494;5.502;2023-05-10T12:55:45;101344.97;;;19.22;66.95
80678;BME280;70042;52.494;5.502;2023-05-10T12:58:10;101341.38;;;19.23;66.33
80678;BME280;70042;52.494;5.502;2023-05-10T13:00:36;101348.44;;;19.24;66.34
80678;BME280;70042;52.494;5.502;2023-05-10T13:03:04;101347.50;;;19.27;66.19
80678;BME280;70042;52.494;5.502;2023-05-10T13:05:30;101349.25;;;19.28;66.29
80678;BME280;70042;52.494;5.502;2023-05-10T13:07:55;101340.41;;;19.29;66.53
80678;BME280;70042;52.494;5.502;2023-05-10T13:10:21;101346.53;;;19.29;66.33
80678;BME280;70042;52.494;5.502;2023-05-10T13:12:47;101343.00;;;19.30;66.02
80678;BME280;70042;52.494;5.502;2023-05-10T13:15:13;101349.09;;;19.32;66.33
80678;BME280;70042;52.494;5.502;2023-05-10T13:17:38;101348.28;;;19.32;66.07
80678;BME280;70042;52.494;5.502;2023-05-10T13:20:06;101350.00;;;19.33;66.00
80678;BME280;70042;52.494;5.502;2023-05-10T13:22:31;101349.16;;;19.31;66.54
80678;BME280;70042;52.494;5.502;2023-05-10T13:24:57;101358.81;;;19.33;66.38
80678;BME280;70042;52.494;5.502;2023-05-10T13:27:22;101355.25;;;19.34;65.98
80678;BME280;70042;52.494;5.502;2023-05-10T13:29:48;101351.75;;;19.32;66.15
80678;BME280;70042;52.494;5.502;2023-05-10T13:32:13;101356.16;;;19.33;65.97
80678;BME280;70042;52.494;5.502;2023-05-10T13:34:38;101352.63;;;19.33;65.86
80678;BME280;70042;52.494;5.502;2023-05-10T13:37:04;101354.38;;;19.34;65.14
80678;BME280;70042;52.494;5.502;2023-05-10T13:39:29;101351.66;;;19.37;65.58
80678;BME280;70042;52.494;5.502;2023-05-10T13:41:58;101358.63;;;19.42;65.96
80678;BME280;70042;52.494;5.502;2023-05-10T13:44:23;101356.75;;;19.47;65.88
80678;BME280;70042;52.494;5.502;2023-05-10T13:46:49;101360.16;;;19.52;65.75
80678;BME280;70042;52.494;5.502;2023-05-10T13:49:14;101351.31;;;19.53;65.90
80678;BME280;70042;52.494;5.502;2023-05-10T13:51:40;101353.03;;;19.54;65.74
80678;BME280;70042;52.494;5.502;2023-05-10T13:54:05;101363.63;;;19.54;65.68
80678;BME280;70042;52.494;5.502;2023-05-10T13:56:31;101368.06;;;19.54;65.58
80678;BME280;70042;52.494;5.502;2023-05-10T13:58:56;101357.47;;;19.54;65.72
80678;BME280;70042;52.494;5.502;2023-05-10T14:01:23;101356.59;;;19.53;65.85
80678;BME280;70042;52.494;5.502;2023-05-10T14:03:48;101356.59;;;19.53;65.54
80678;BME280;70042;52.494;5.502;2023-05-10T14:06:14;101363.63;;;19.54;65.67
80678;BME280;70042;52.494;5.502;2023-05-10T14:08:40;101352.19;;;19.52;65.36
80678;BME280;70042;52.494;5.502;2023-05-10T14:11:05;101362.78;;;19.54;65.38
80678;BME280;70042;52.494;5.502;2023-05-10T14:13:30;101364.56;;;19.53;65.09
80678;BME280;70042;52.494;5.502;2023-05-10T14:15:56;101365.44;;;19.54;65.03
80678;BME280;70042;52.494;5.502;2023-05-10T14:18:21;101370.72;;;19.54;65.11
80678;BME280;70042;52.494;5.502;2023-05-10T14:20:47;101363.63;;;19.54;64.88
80678;BME280;70042;52.494;5.502;2023-05-10T14:23:12;101359.25;;;19.53;64.66
80678;BME280;70042;52.494;5.502;2023-05-10T14:25:40;101369.84;;;19.53;64.73
80678;BME280;70042;52.494;5.502;2023-05-10T14:28:05;101365.44;;;19.52;64.65
80678;BME280;70042;52.494;5.502;2023-05-10T14:30:31;101366.34;;;19.51;64.73
80678;BME280;70042;52.494;5.502;2023-05-10T14:33:01;101365.53;;;19.49;64.35
80678;BME280;70042;52.494;5.502;2023-05-10T14:35:27;101364.66;;;19.49;64.41
80678;BME280;70042;52.494;5.502;2023-05-10T14:37:53;101370.91;;;19.46;64.62
80678;BME280;70042;52.494;5.502;2023-05-10T14:40:18;101365.59;;;19.46;64.81
80678;BME280;70042;52.494;5.502;2023-05-10T14:42:44;101364.72;;;19.46;64.79
80678;BME280;70042;52.494;5.502;2023-05-10T14:45:10;101370.91;;;19.46;64.84
80678;BME280;70042;52.494;5.502;2023-05-10T14:47:37;101367.44;;;19.44;64.56
80678;BME280;70042;52.494;5.502;2023-05-10T14:50:03;101372.72;;;19.44;64.53
80678;BME280;70042;52.494;5.502;2023-05-10T14:52:28;101379.81;;;19.44;64.41
80678;BME280;70042;52.494;5.502;2023-05-10T14:54:54;101370.97;;;19.43;64.69
80678;BME280;70042;52.494;5.502;2023-05-10T14:57:19;101373.63;;;19.43;64.54
80678;BME280;70042;52.494;5.502;2023-05-10T14:59:45;101373.66;;;19.42;64.86
80678;BME280;70042;52.494;5.502;2023-05-10T15:02:10;101369.28;;;19.41;64.63
80678;BME280;70042;52.494;5.502;2023-05-10T15:04:36;101361.31;;;19.39;64.59
80678;BME280;70042;52.494;5.502;2023-05-10T15:07:02;101364.88;;;19.40;64.47
80678;BME280;70042;52.494;5.502;2023-05-10T15:09:27;101369.25;;;19.39;64.32
80678;BME280;70042;52.494;5.502;2023-05-10T15:11:53;101369.25;;;19.39;64.53
80678;BME280;70042;52.494;5.502;2023-05-10T15:14:19;101379.88;;;19.39;64.24
80678;BME280;70042;52.494;5.502;2023-05-10T15:16:44;101379.88;;;19.39;64.63
80678;BME280;70042;52.494;5.502;2023-05-10T15:19:10;101386.06;;;19.40;64.22
80678;BME280;70042;52.494;5.502;2023-05-10T15:21:35;101386.09;;;19.38;64.57
80678;BME280;70042;52.494;5.502;2023-05-10T15:24:05;101390.47;;;19.39;64.41
80678;BME280;70042;52.494;5.502;2023-05-10T15:26:30;101387.88;;;19.36;64.27
80678;BME280;70042;52.494;5.502;2023-05-10T15:28:56;101379.91;;;19.38;64.04
80678;BME280;70042;52.494;5.502;2023-05-10T15:31:21;101388.75;;;19.37;64.34
80678;BME280;70042;52.494;5.502;2023-05-10T15:33:47;101392.28;;;19.37;65.81
80678;BME280;70042;52.494;5.502;2023-05-10T15:36:12;101392.28;;;19.37;65.32
80678;BME280;70042;52.494;5.502;2023-05-10T15:38:38;101399.34;;;19.38;65.78
80678;BME280;70042;52.494;5.502;2023-05-10T15:41:03;101399.34;;;19.38;65.50
80678;BME280;70042;52.494;5.502;2023-05-10T15:43:29;101397.59;;;19.37;65.11
80678;BME280;70042;52.494;5.502;2023-05-10T15:45:54;101390.53;;;19.36;65.38
80678;BME280;70042;52.494;5.502;2023-05-10T15:48:19;101394.94;;;19.37;65.75
80678;BME280;70042;52.494;5.502;2023-05-10T15:50:45;101407.28;;;19.38;66.34
80678;BME280;70042;52.494;5.502;2023-05-10T15:53:10;101407.28;;;19.38;66.50
80678;BME280;70042;52.494;5.502;2023-05-10T15:55:36;101409.91;;;19.40;67.50
80678;BME280;70042;52.494;5.502;2023-05-10T15:58:01;101409.91;;;19.41;68.12
80678;BME280;70042;52.494;5.502;2023-05-10T16:00:27;101407.19;;;19.43;69.04
80678;BME280;70042;52.494;5.502;2023-05-10T16:02:53;101411.56;;;19.45;70.56
80678;BME280;70042;52.494;5.502;2023-05-10T16:05:18;101415.97;;;19.46;69.42
80678;BME280;70042;52.494;5.502;2023-05-10T16:07:44;101412.41;;;19.47;68.02
80678;BME280;70042;52.494;5.502;2023-05-10T16:10:10;101417.72;;;19.47;68.11
80678;BME280;70042;52.494;5.502;2023-05-10T16:12:35;101423.84;;;19.48;67.06
80678;BME280;70042;52.494;5.502;2023-05-10T16:15:01;101422.09;;;19.48;67.87
80678;BME280;70042;52.494;5.502;2023-05-10T16:17:26;101423.00;;;19.47;67.35
80678;BME280;70042;52.494;5.502;2023-05-10T16:19:52;101416.84;;;19.47;68.45
80678;BME280;70042;52.494;5.502;2023-05-10T16:22:17;101418.53;;;19.49;68.81
80678;BME280;70042;52.494;5.502;2023-05-10T16:24:43;101412.28;;;19.52;68.85
80678;BME280;70042;52.494;5.502;2023-05-10T16:27:08;101421.94;;;19.54;68.73
80678;BME280;70042;52.494;5.502;2023-05-10T16:29:34;101421.00;;;19.57;68.27
80678;BME280;70042;52.494;5.502;2023-05-10T16:31:59;101424.50;;;19.59;68.13
80678;BME280;70042;52.494;5.502;2023-05-10T16:34:25;101420.06;;;19.59;67.84
80678;BME280;70042;52.494;5.502;2023-05-10T16:36:51;101428.84;;;19.61;67.78
80678;BME280;70042;52.494;5.502;2023-05-10T16:39:16;101417.34;;;19.61;67.27
80678;BME280;70042;52.494;5.502;2023-05-10T16:41:41;101420.88;;;19.63;66.92
80678;BME280;70042;52.494;5.502;2023-05-10T16:44:07;101428.81;;;19.63;67.05
80678;BME280;70042;52.494;5.502;2023-05-10T16:46:32;101432.31;;;19.63;67.18
80678;BME280;70042;52.494;5.502;2023-05-10T16:48:58;101422.63;;;19.62;67.31
80678;BME280;70042;52.494;5.502;2023-05-10T16:51:25;101430.59;;;19.62;66.97
80678;BME280;70042;52.494;5.502;2023-05-10T16:53:50;101429.72;;;19.62;67.83
80678;BME280;70042;52.494;5.502;2023-05-10T16:56:15;101427.97;;;19.61;67.17
80678;BME280;70042;52.494;5.502;2023-05-10T16:58:45;101433.31;;;19.59;66.97
80678;BME280;70042;52.494;5.502;2023-05-10T17:01:14;101435.09;;;19.59;66.96
80678;BME280;70042;52.494;5.502;2023-05-10T17:03:39;101434.22;;;19.58;67.38
80678;BME280;70042;52.494;5.502;2023-05-10T17:06:05;101433.34;;;19.58;67.35
80678;BME280;70042;52.494;5.502;2023-05-10T17:08:31;101444.88;;;19.57;66.77
80678;BME280;70042;52.494;5.502;2023-05-10T17:11:00;101428.13;;;19.55;66.80
80678;BME280;70042;52.494;5.502;2023-05-10T17:13:25;101436.13;;;19.53;66.95
80678;BME280;70042;52.494;5.502;2023-05-10T17:15:51;101438.84;;;19.50;66.94
80678;BME280;70042;52.494;5.502;2023-05-10T17:18:17;101445.03;;;19.49;67.77
80678;BME280;70042;52.494;5.502;2023-05-10T17:20:43;101443.34;;;19.47;68.03
80678;BME280;70042;52.494;5.502;2023-05-10T17:23:09;101446.88;;;19.46;67.25
80678;BME280;70042;52.494;5.502;2023-05-10T17:25:35;101449.59;;;19.44;66.79
80678;BME280;70042;52.494;5.502;2023-05-10T17:28:01;101453.94;;;19.45;66.56
80678;BME280;70042;52.494;5.502;2023-05-10T17:30:27;101450.47;;;19.43;66.26
80678;BME280;70042;52.494;5.502;2023-05-10T17:32:59;101455.78;;;19.42;65.98
80678;BME280;70042;52.494;5.502;2023-05-10T17:35:26;101453.19;;;19.40;65.91
80678;BME280;70042;52.494;5.502;2023-05-10T17:38:10;101456.72;;;19.41;66.58
80678;BME280;70042;52.494;5.502;2023-05-10T17:40:39;101464.69;;;19.41;66.89
80678;BME280;70042;52.494;5.502;2023-05-10T17:43:15;101462.91;;;19.41;66.89
80678;BME280;70042;52.494;5.502;2023-05-10T17:45:42;101464.63;;;19.42;66.78
80678;BME280;70042;52.494;5.502;2023-05-10T17:48:10;101459.31;;;19.42;66.25
80678;BME280;70042;52.494;5.502;2023-05-10T17:50:36;101457.59;;;19.41;66.77
80678;BME280;70042;52.494;5.502;2023-05-10T17:53:04;101469.03;;;19.43;67.13
80678;BME280;70042;52.494;5.502;2023-05-10T17:55:44;101471.69;;;19.43;66.75
80678;BME280;70042;52.494;5.502;2023-05-10T17:58:10;101482.28;;;19.43;66.46
80678;BME280;70042;52.494;5.502;2023-05-10T18:00:36;101487.59;;;19.43;67.06
80678;BME280;70042;52.494;5.502;2023-05-10T18:03:05;101487.59;;;19.43;66.70
80678;BME280;70042;52.494;5.502;2023-05-10T18:05:36;101499.06;;;19.44;66.76
80678;BME280;70042;52.494;5.502;2023-05-10T18:08:05;101490.22;;;19.43;66.81
80678;BME280;70042;52.494;5.502;2023-05-10T18:10:37;101497.31;;;19.43;67.65
80678;BME280;70042;52.494;5.502;2023-05-10T18:13:03;101493.78;;;19.42;67.31
80678;BME280;70042;52.494;5.502;2023-05-10T18:15:32;101492.00;;;19.43;67.38
80678;BME280;70042;52.494;5.502;2023-05-10T18:18:02;101493.84;;;19.41;67.30
80678;BME280;70042;52.494;5.502;2023-05-10T18:20:48;101496.47;;;19.39;67.10
80678;BME280;70042;52.494;5.502;2023-05-10T18:23:31;101494.75;;;19.38;67.69
80678;BME280;70042;52.494;5.502;2023-05-10T18:25:57;101495.59;;;19.39;67.90
80678;BME280;70042;52.494;5.502;2023-05-10T18:28:22;101504.44;;;19.41;67.56
80678;BME280;70042;52.494;5.502;2023-05-10T18:30:49;101504.38;;;19.42;67.64
80678;BME280;70042;52.494;5.502;2023-05-10T18:33:15;101491.13;;;19.42;67.57
80678;BME280;70042;52.494;5.502;2023-05-10T18:35:40;101499.94;;;19.44;67.30
80678;BME280;70042;52.494;5.502;2023-05-10T18:38:06;101489.34;;;19.44;67.50
80678;BME280;70042;52.494;5.502;2023-05-10T18:40:34;101499.00;;;19.45;67.91
80678;BME280;70042;52.494;5.502;2023-05-10T18:43:01;101495.53;;;19.43;67.30
80678;BME280;70042;52.494;5.502;2023-05-10T18:45:27;101498.19;;;19.43;67.02
80678;BME280;70042;52.494;5.502;2023-05-10T18:47:52;101499.94;;;19.44;66.46
80678;BME280;70042;52.494;5.502;2023-05-10T18:50:18;101498.19;;;19.43;67.01
80678;BME280;70042;52.494;5.502;2023-05-10T18:52:44;101505.25;;;19.44;67.27
80678;BME280;70042;52.494;5.502;2023-05-10T18:55:09;101504.31;;;19.45;67.16
80678;BME280;70042;52.494;5.502;2023-05-10T18:57:35;101500.78;;;19.45;66.77
80678;BME280;70042;52.494;5.502;2023-05-10T19:00:10;101508.72;;;19.46;66.97
80678;BME280;70042;52.494;5.502;2023-05-10T19:02:37;101503.41;;;19.46;67.03
80678;BME280;70042;52.494;5.502;2023-05-10T19:05:04;101506.06;;;19.46;67.10
80678;BME280;70042;52.494;5.502;2023-05-10T19:07:30;101507.78;;;19.49;66.72
80678;BME280;70042;52.494;5.502;2023-05-10T19:09:56;101510.47;;;19.47;67.01
80678;BME280;70042;52.494;5.502;2023-05-10T19:12:27;101505.16;;;19.47;66.91
80678;BME280;70042;52.494;5.502;2023-05-10T19:14:56;101501.66;;;19.45;67.41
80678;BME280;70042;52.494;5.502;2023-05-10T19:17:22;101506.13;;;19.43;67.35
80678;BME280;70042;52.494;5.502;2023-05-10T19:19:49;101514.09;;;19.43;67.03
80678;BME280;70042;52.494;5.502;2023-05-10T19:22:29;101516.69;;;19.45;67.22
80678;BME280;70042;52.494;5.502;2023-05-10T19:25:11;101519.38;;;19.43;67.45
80678;BME280;70042;52.494;5.502;2023-05-10T19:30:40;101519.38;;;19.43;67.48
80678;BME280;70042;52.494;5.502;2023-05-10T19:33:10;101519.38;;;19.43;67.47
80678;BME280;70042;52.494;5.502;2023-05-10T19:39:24;101533.47;;;19.45;67.65
80678;BME280;70042;52.494;5.502;2023-05-10T19:41:50;101536.13;;;19.45;67.82
80678;BME280;70042;52.494;5.502;2023-05-10T19:44:16;101530.81;;;19.45;68.13
80678;BME280;70042;52.494;5.502;2023-05-10T19:46:46;101525.56;;;19.44;67.79
80678;BME280;70042;52.494;5.502;2023-05-10T19:49:13;101542.28;;;19.46;68.29
80678;BME280;70042;52.494;5.502;2023-05-10T19:51:40;101534.38;;;19.44;67.98
80678;BME280;70042;52.494;5.502;2023-05-10T19:54:07;101542.28;;;19.46;67.75
80678;BME280;70042;52.494;5.502;2023-05-10T19:56:33;101551.13;;;19.46;67.64
80678;BME280;70042;52.494;5.502;2023-05-10T19:59:01;101547.59;;;19.46;68.09
80678;BME280;70042;52.494;5.502;2023-05-10T20:01:28;101551.13;;;19.46;68.22
80678;BME280;70042;52.494;5.502;2023-05-10T20:03:53;101552.00;;;19.47;68.03
80678;BME280;70042;52.494;5.502;2023-05-10T20:06:20;101547.56;;;19.47;68.23
80678;BME280;70042;52.494;5.502;2023-05-10T20:08:46;101556.34;;;19.49;68.45
80678;BME280;70042;52.494;5.502;2023-05-10T20:11:14;101559.91;;;19.48;68.29
80678;BME280;70042;52.494;5.502;2023-05-10T20:16:57;101565.31;;;19.44;68.31
80678;BME280;70042;52.494;5.502;2023-05-10T20:20:19;101570.63;;;19.42;67.98
80678;BME280;70042;52.494;5.502;2023-05-10T20:22:44;101564.44;;;19.42;68.52
80678;BME280;70042;52.494;5.502;2023-05-10T20:25:12;101563.59;;;19.41;68.07
80678;BME280;70042;52.494;5.502;2023-05-10T20:27:39;101568.91;;;19.41;68.48
80678;BME280;70042;52.494;5.502;2023-05-10T20:30:07;101560.03;;;19.42;68.49
80678;BME280;70042;52.494;5.502;2023-05-10T20:32:33;101568.91;;;19.41;68.29
80678;BME280;70042;52.494;5.502;2023-05-10T20:35:01;101554.78;;;19.41;68.17
80678;BME280;70042;52.494;5.502;2023-05-10T20:37:28;101567.09;;;19.42;68.59
80678;BME280;70042;52.494;5.502;2023-05-10T20:39:56;101561.84;;;19.40;67.99
80678;BME280;70042;52.494;5.502;2023-05-10T20:42:23;101562.72;;;19.39;68.25
80678;BME280;70042;52.494;5.502;2023-05-10T20:44:49;101563.63;;;19.38;67.85
80678;BME280;70042;52.494;5.502;2023-05-10T20:47:16;101558.34;;;19.38;67.96
80678;BME280;70042;52.494;5.502;2023-05-10T20:49:45;101568.00;;;19.39;68.21
80678;BME280;70042;52.494;5.502;2023-05-10T20:52:11;101568.94;;;19.38;68.37
80678;BME280;70042;52.494;5.502;2023-05-10T20:54:38;101579.53;;;19.38;68.39
80678;BME280;70042;52.494;5.502;2023-05-10T20:57:05;101583.03;;;19.39;68.60
80678;BME280;70042;52.494;5.502;2023-05-10T20:59:33;101582.19;;;19.38;68.02
80678;BME280;70042;52.494;5.502;2023-05-10T21:01:59;101579.53;;;19.38;68.51
80678;BME280;70042;52.494;5.502;2023-05-10T21:04:26;101576.88;;;19.38;68.28
80678;BME280;70042;52.494;5.502;2023-05-10T21:07:00;101566.31;;;19.37;68.32
80678;BME280;70042;52.494;5.502;2023-05-10T21:09:27;101576.03;;;19.36;68.00
80678;BME280;70042;52.494;5.502;2023-05-10T21:11:54;101565.44;;;19.36;68.03
80678;BME280;70042;52.494;5.502;2023-05-10T21:14:21;101568.00;;;19.39;68.19
80678;BME280;70042;52.494;5.502;2023-05-10T21:16:47;101569.81;;;19.40;67.82
80678;BME280;70042;52.494;5.502;2023-05-10T21:19:16;101566.25;;;19.41;67.88
80678;BME280;70042;52.494;5.502;2023-05-10T21:21:43;101574.22;;;19.41;67.82
80678;BME280;70042;52.494;5.502;2023-05-10T21:24:10;101568.91;;;19.41;68.05
80678;BME280;70042;52.494;5.502;2023-05-10T21:26:37;101568.84;;;19.43;68.33
80678;BME280;70042;52.494;5.502;2023-05-10T21:29:03;101569.75;;;19.43;67.91
80678;BME280;70042;52.494;5.502;2023-05-10T21:31:30;101568.03;;;19.41;68.26
80678;BME280;70042;52.494;5.502;2023-05-10T21:33:57;101570.69;;;19.41;69.20
80678;BME280;70042;52.494;5.502;2023-05-10T21:36:23;101567.16;;;19.40;68.53
80678;BME280;70042;52.494;5.502;2023-05-10T21:38:50;101565.38;;;19.41;68.72
80678;BME280;70042;52.494;5.502;2023-05-10T21:41:16;101560.06;;;19.41;68.64
80678;BME280;70042;52.494;5.502;2023-05-10T21:43:42;101558.31;;;19.41;68.65
80678;BME280;70042;52.494;5.502;2023-05-10T21:46:08;101555.66;;;19.41;68.63
80678;BME280;70042;52.494;5.502;2023-05-10T21:48:34;101555.66;;;19.41;68.64
80678;BME280;70042;52.494;5.502;2023-05-10T21:51:00;101567.16;;;19.40;68.34
80678;BME280;70042;52.494;5.502;2023-05-10T21:53:27;101565.34;;;19.39;68.68
80678;BME280;70042;52.494;5.502;2023-05-10T21:55:53;101565.44;;;19.36;68.66
80678;BME280;70042;52.494;5.502;2023-05-10T21:58:20;101567.25;;;19.34;68.85
80678;BME280;70042;52.494;5.502;2023-05-10T22:00:46;101565.53;;;19.32;68.53
80678;BME280;70042;52.494;5.502;2023-05-10T22:03:12;101561.16;;;19.29;68.97
80678;BME280;70042;52.494;5.502;2023-05-10T22:05:37;101560.31;;;19.27;68.79
80678;BME280;70042;52.494;5.502;2023-05-10T22:08:04;101569.22;;;19.25;68.99
80678;BME280;70042;52.494;5.502;2023-05-10T22:10:30;101569.22;;;19.23;68.85
80678;BME280;70042;52.494;5.502;2023-05-10T22:12:55;101564.00;;;19.20;68.52
80678;BME280;70042;52.494;5.502;2023-05-10T22:15:21;101568.41;;;19.19;68.51
80678;BME280;70042;52.494;5.502;2023-05-10T22:17:47;101572.88;;;19.17;68.68
80678;BME280;70042;52.494;5.502;2023-05-10T22:20:12;101569.41;;;19.15;68.69
80678;BME280;70042;52.494;5.502;2023-05-10T22:22:38;101572.06;;;19.14;68.88
80678;BME280;70042;52.494;5.502;2023-05-10T22:25:07;101576.53;;;19.12;68.46
80678;BME280;70042;52.494;5.502;2023-05-10T22:27:32;101569.47;;;19.11;68.31
80678;BME280;70042;52.494;5.502;2023-05-10T22:29:58;101580.06;;;19.11;68.75
80678;BME280;70042;52.494;5.502;2023-05-10T22:32:24;101584.53;;;19.09;68.85
80678;BME280;70042;52.494;5.502;2023-05-10T22:34:49;101576.59;;;19.09;68.54
80678;BME280;70042;52.494;5.502;2023-05-10T22:37:15;101585.41;;;19.08;68.96
80678;BME280;70042;52.494;5.502;2023-05-10T22:39:43;101585.41;;;19.08;68.82
80678;BME280;70042;52.494;5.502;2023-05-10T22:42:09;101585.41;;;19.08;68.61
80678;BME280;70042;52.494;5.502;2023-05-10T22:44:34;101583.66;;;19.07;68.62
80678;BME280;70042;52.494;5.502;2023-05-10T22:47:00;101585.41;;;19.08;68.54
80678;BME280;70042;52.494;5.502;2023-05-10T22:49:25;101584.53;;;19.07;68.64
80678;BME280;70042;52.494;5.502;2023-05-10T22:51:51;101588.97;;;19.07;68.42
80678;BME280;70042;52.494;5.502;2023-05-10T22:54:17;101585.41;;;19.08;68.18
80678;BME280;70042;52.494;5.502;2023-05-10T22:56:42;101581.94;;;19.06;68.42
80678;BME280;70042;52.494;5.502;2023-05-10T22:59:08;101581.94;;;19.06;68.43
80678;BME280;70042;52.494;5.502;2023-05-10T23:01:34;101581.06;;;19.05;68.80
80678;BME280;70042;52.494;5.502;2023-05-10T23:04:00;101579.31;;;19.04;68.75
80678;BME280;70042;52.494;5.502;2023-05-10T23:06:25;101578.44;;;19.04;68.51
80678;BME280;70042;52.494;5.502;2023-05-10T23:08:53;101582.84;;;19.05;68.32
80678;BME280;70042;52.494;5.502;2023-05-10T23:11:18;101582.88;;;19.03;68.55
80678;BME280;70042;52.494;5.502;2023-05-10T23:13:44;101589.94;;;19.03;68.49
80678;BME280;70042;52.494;5.502;2023-05-10T23:16:10;101590.84;;;19.02;68.29
80678;BME280;70042;52.494;5.502;2023-05-10T23:18:35;101589.09;;;19.01;68.01
80678;BME280;70042;52.494;5.502;2023-05-10T23:21:01;101594.38;;;19.01;68.41
80678;BME280;70042;52.494;5.502;2023-05-10T23:23:26;101589.09;;;19.01;68.19
80678;BME280;70042;52.494;5.502;2023-05-10T23:25:52;101597.94;;;19.00;68.41
80678;BME280;70042;52.494;5.502;2023-05-10T23:28:17;101593.53;;;18.99;68.11
80678;BME280;70042;52.494;5.502;2023-05-10T23:30:43;101596.19;;;18.99;68.06
80678;BME280;70042;52.494;5.502;2023-05-10T23:33:08;101602.44;;;18.96;68.15
80678;BME280;70042;52.494;5.502;2023-05-10T23:35:34;101598.00;;;18.97;68.38
80678;BME280;70042;52.494;5.502;2023-05-10T23:38:00;101595.34;;;18.97;68.10
80678;BME280;70042;52.494;5.502;2023-05-10T23:40:26;101600.66;;;18.95;68.45
80678;BME280;70042;52.494;5.502;2023-05-10T23:42:51;101596.25;;;18.96;68.34
80678;BME280;70042;52.494;5.502;2023-05-10T23:45:17;101590.94;;;18.96;68.13
80678;BME280;70042;52.494;5.502;2023-05-10T23:47:42;101587.47;;;18.94;68.35
80678;BME280;70042;52.494;5.502;2023-05-10T23:50:08;101589.25;;;18.93;68.01
80678;BME280;70042;52.494;5.502;2023-05-10T23:52:34;101591.00;;;18.93;68.00
80678;BME280;70042;52.494;5.502;2023-05-10T23:54:59;101591.88;;;18.93;68.00
80678;BME280;70042;52.494;5.502;2023-05-10T23:57:25;101591.03;;;18.91;68.46
80678;BME280;70042;52.494;5.502;2023-05-10T23:59:50;101595.47;;;18.91;68.01
